Ethel, LA (70730)

12:52 PM CDT en Septiembre 19, 2014 (GMT -0500)
Dunceath Acres | Change Station
CLOSE
Current Station
Estación meteorológica personal
Location: Ethel, LA
Altura: 192 ft
Estaciones meteorológicas cercanas

Alt 192 ft 30.77 °N, 91.20 °W | Updated 5 seconds ago

Parcialmente nublado
Parcialmente nublado
84.4 ° F
Sensación térmica 93 ° F
N
4.0
Viento Variable Viento desde ESE
Gusts 5.0 mph

Hoy
Alta -- | Baja -- ° F
--% Posibilidad de precipitaciones
Ayer
Alta -- | Baja -- ° F
Precip. -- pul
6:51 AM 7:04 PM
Creciente menguante, 18% visible
Presión 29.98 pul
Visibilidad 10.0 Millas
Nubes Muy nublado 2300 ft
Muy nublado 3300 ft
Muy nublado 4400 ft
Índice de calor 93 ° F
Punto de rocío 76 ° F
Humedad 75%
Precipitaciones 0.00 pul
Espesor de la nieve No disponible.
UV 5 de una escala de 12
Polen 10.00 de una escala de 12
Calidad del aire No disponible.
Flu Activity No disponible.
METAR KBTR 191653Z 12008KT 10SM BKN023 BKN033 BKN044 28/22 A2998 RMK AO2 SLP151 T02830217

More Conditions Fewer Conditions

Presión 29.98 pul
Visibilidad 10.0 Millas
Nubes Muy nublado 2300 ft
Muy nublado 3300 ft
Muy nublado 4400 ft
Índice de calor 93 ° F
Punto de rocío 76 ° F
Humedad 75%
Precipitaciones 0.00 pul
Espesor de la nieve No disponible.
UV 5 de una escala de 12
Polen 10.00 de una escala de 12
Calidad del aire No disponible.
Flu Activity No disponible.
METAR KBTR 191653Z 12008KT 10SM BKN023 BKN033 BKN044 28/22 A2998 RMK AO2 SLP151 T02830217

More Conditions Fewer Conditions

10-Day Weather Forecast

Almanac

Astronomía

Sep. 19, 2014 Salida Puesta
Hora real 6:51 AM CDT 7:04 PM CDT
Crepúsculo civil 6:26 AM CDT 7:28 PM CDT
Crepúsculo náutico 5:58 AM CDT 7:57 PM CDT
Crepúsculo astronómico 5:30 AM CDT 8:25 PM CDT
Luna 2:50 AM CDT 4:21 PM CDT
Horas de luz 13h 02m
Horas de luz
12h 13m
Tomorrow will be 1m 52s shorter.
Creciente menguante, 18% of the Moon is Illuminated
Hoy
Creciente menguante
Sep 24
Nueva
Oct 1
Cuarto creciente
Oct 8
Luna llena
Oct 15
Cuarto menguante

Extremos de hoy

Máximos del estado Bajos del estado

Community

WunderPhotos

Upload Photos

1,754,668 ¡fotos cargadas!

Nearby

Grosos de nieve

Estación Profundido Altura
No tenemos constancia de nieve nueva.

Actividad de terremotos

Ciudad Distance Mag. Tiempo y dato
No hay informes recientes de la actividad sísmica.
Magnitud mínima muestra es 2,5.

Temperaturas de aguas costeras

Lugar Temperatura
Sin partes meteorológicos de las estaciones

Estaciones meteorológicas cercanas